sensor_id;sensor_type;location;lat;lon;timestamp;P1;durP1;ratioP1;P2;durP2;ratioP2
83282;SDS011;73190;50.780;5.658;2024-01-25T00:01:10;57.17;;;10.68;;
83282;SDS011;73190;50.780;5.658;2024-01-25T00:03:37;50.95;;;9.33;;
83282;SDS011;73190;50.780;5.658;2024-01-25T00:06:05;56.90;;;8.45;;
83282;SDS011;73190;50.780;5.658;2024-01-25T00:08:33;56.92;;;7.90;;
83282;SDS011;73190;50.780;5.658;2024-01-25T00:11:02;47.30;;;7.72;;
83282;SDS011;73190;50.780;5.658;2024-01-25T00:13:30;49.75;;;7.03;;
83282;SDS011;73190;50.780;5.658;2024-01-25T00:15:57;50.98;;;9.18;;
83282;SDS011;73190;50.780;5.658;2024-01-25T00:18:25;54.15;;;8.80;;
83282;SDS011;73190;50.780;5.658;2024-01-25T00:20:54;52.70;;;8.40;;
83282;SDS011;73190;50.780;5.658;2024-01-25T00:23:22;57.75;;;8.65;;
83282;SDS011;73190;50.780;5.658;2024-01-25T00:25:49;56.42;;;8.40;;
83282;SDS011;73190;50.780;5.658;2024-01-25T00:28:17;53.75;;;8.90;;
83282;SDS011;73190;50.780;5.658;2024-01-25T00:30:44;44.05;;;7.37;;
83282;SDS011;73190;50.780;5.658;2024-01-25T00:33:12;62.38;;;9.20;;
83282;SDS011;73190;50.780;5.658;2024-01-25T00:35:39;55.80;;;8.83;;
83282;SDS011;73190;50.780;5.658;2024-01-25T00:38:07;59.93;;;9.15;;
83282;SDS011;73190;50.780;5.658;2024-01-25T00:40:35;50.38;;;8.20;;
83282;SDS011;73190;50.780;5.658;2024-01-25T00:43:03;57.35;;;7.72;;
83282;SDS011;73190;50.780;5.658;2024-01-25T00:45:31;53.70;;;8.80;;
83282;SDS011;73190;50.780;5.658;2024-01-25T00:47:59;48.75;;;8.83;;
83282;SDS011;73190;50.780;5.658;2024-01-25T00:50:27;51.25;;;8.60;;
83282;SDS011;73190;50.780;5.658;2024-01-25T00:52:55;56.88;;;9.85;;
83282;SDS011;73190;50.780;5.658;2024-01-25T00:55:22;58.58;;;9.08;;
83282;SDS011;73190;50.780;5.658;2024-01-25T00:57:50;41.15;;;6.95;;
83282;SDS011;73190;50.780;5.658;2024-01-25T01:00:18;52.50;;;8.55;;
83282;SDS011;73190;50.780;5.658;2024-01-25T01:02:47;56.85;;;8.20;;
83282;SDS011;73190;50.780;5.658;2024-01-25T01:05:15;43.83;;;7.60;;
83282;SDS011;73190;50.780;5.658;2024-01-25T01:07:42;54.60;;;9.20;;
83282;SDS011;73190;50.780;5.658;2024-01-25T01:10:10;59.75;;;8.95;;
83282;SDS011;73190;50.780;5.658;2024-01-25T01:12:40;59.23;;;9.97;;
83282;SDS011;73190;50.780;5.658;2024-01-25T01:15:07;48.80;;;8.23;;
83282;SDS011;73190;50.780;5.658;2024-01-25T01:17:35;47.88;;;8.23;;
83282;SDS011;73190;50.780;5.658;2024-01-25T01:20:03;59.05;;;8.40;;
83282;SDS011;73190;50.780;5.658;2024-01-25T01:22:30;57.20;;;9.38;;
83282;SDS011;73190;50.780;5.658;2024-01-25T01:24:58;54.18;;;8.83;;
83282;SDS011;73190;50.780;5.658;2024-01-25T01:27:25;52.73;;;8.30;;
83282;SDS011;73190;50.780;5.658;2024-01-25T01:29:53;60.17;;;9.73;;
83282;SDS011;73190;50.780;5.658;2024-01-25T01:32:20;59.50;;;10.00;;
83282;SDS011;73190;50.780;5.658;2024-01-25T01:34:48;59.10;;;8.65;;
83282;SDS011;73190;50.780;5.658;2024-01-25T01:37:15;54.80;;;9.03;;
83282;SDS011;73190;50.780;5.658;2024-01-25T01:39:43;53.28;;;8.75;;
83282;SDS011;73190;50.780;5.658;2024-01-25T01:42:11;48.33;;;8.28;;
83282;SDS011;73190;50.780;5.658;2024-01-25T01:44:38;51.28;;;8.63;;
83282;SDS011;73190;50.780;5.658;2024-01-25T01:47:06;52.85;;;8.25;;
83282;SDS011;73190;50.780;5.658;2024-01-25T01:49:34;56.65;;;8.75;;
83282;SDS011;73190;50.780;5.658;2024-01-25T01:52:02;60.15;;;8.43;;
83282;SDS011;73190;50.780;5.658;2024-01-25T01:54:30;64.60;;;8.25;;
83282;SDS011;73190;50.780;5.658;2024-01-25T01:56:58;59.95;;;8.75;;
83282;SDS011;73190;50.780;5.658;2024-01-25T01:59:26;49.33;;;7.50;;
83282;SDS011;73190;50.780;5.658;2024-01-25T02:01:55;52.38;;;8.55;;
83282;SDS011;73190;50.780;5.658;2024-01-25T02:04:23;54.53;;;8.23;;
83282;SDS011;73190;50.780;5.658;2024-01-25T02:06:50;44.20;;;8.10;;
83282;SDS011;73190;50.780;5.658;2024-01-25T02:09:18;54.90;;;8.53;;
83282;SDS011;73190;50.780;5.658;2024-01-25T02:11:45;61.77;;;8.63;;
83282;SDS011;73190;50.780;5.658;2024-01-25T02:14:13;49.45;;;8.25;;
83282;SDS011;73190;50.780;5.658;2024-01-25T02:16:41;49.67;;;7.40;;
83282;SDS011;73190;50.780;5.658;2024-01-25T02:19:10;60.80;;;7.55;;
83282;SDS011;73190;50.780;5.658;2024-01-25T02:21:37;58.52;;;8.73;;
83282;SDS011;73190;50.780;5.658;2024-01-25T02:24:05;61.02;;;9.60;;
83282;SDS011;73190;50.780;5.658;2024-01-25T02:26:35;59.60;;;9.45;;
83282;SDS011;73190;50.780;5.658;2024-01-25T02:29:02;63.45;;;8.50;;
83282;SDS011;73190;50.780;5.658;2024-01-25T02:31:30;47.13;;;8.13;;
83282;SDS011;73190;50.780;5.658;2024-01-25T02:33:58;53.45;;;8.38;;
83282;SDS011;73190;50.780;5.658;2024-01-25T02:36:25;48.55;;;8.03;;
83282;SDS011;73190;50.780;5.658;2024-01-25T02:38:53;48.20;;;8.48;;
83282;SDS011;73190;50.780;5.658;2024-01-25T02:41:20;69.87;;;9.80;;
83282;SDS011;73190;50.780;5.658;2024-01-25T02:43:48;57.38;;;9.33;;
83282;SDS011;73190;50.780;5.658;2024-01-25T02:46:15;52.45;;;8.78;;
83282;SDS011;73190;50.780;5.658;2024-01-25T02:48:43;53.85;;;7.85;;
83282;SDS011;73190;50.780;5.658;2024-01-25T02:51:11;65.28;;;9.50;;
83282;SDS011;73190;50.780;5.658;2024-01-25T02:53:38;48.70;;;7.58;;
83282;SDS011;73190;50.780;5.658;2024-01-25T02:56:06;52.67;;;10.10;;
83282;SDS011;73190;50.780;5.658;2024-01-25T02:58:34;55.20;;;8.08;;
83282;SDS011;73190;50.780;5.658;2024-01-25T03:01:01;54.77;;;8.35;;
83282;SDS011;73190;50.780;5.658;2024-01-25T03:03:29;56.42;;;8.68;;
83282;SDS011;73190;50.780;5.658;2024-01-25T03:05:57;51.77;;;8.23;;
83282;SDS011;73190;50.780;5.658;2024-01-25T03:08:25;53.02;;;8.40;;
83282;SDS011;73190;50.780;5.658;2024-01-25T03:10:52;43.30;;;7.97;;
83282;SDS011;73190;50.780;5.658;2024-01-25T03:13:20;52.20;;;8.08;;
83282;SDS011;73190;50.780;5.658;2024-01-25T03:15:48;43.17;;;8.05;;
83282;SDS011;73190;50.780;5.658;2024-01-25T03:18:15;47.53;;;8.08;;
83282;SDS011;73190;50.780;5.658;2024-01-25T03:20:43;57.98;;;8.73;;
83282;SDS011;73190;50.780;5.658;2024-01-25T03:23:10;52.78;;;8.95;;
83282;SDS011;73190;50.780;5.658;2024-01-25T03:25:38;50.60;;;7.78;;
83282;SDS011;73190;50.780;5.658;2024-01-25T03:28:05;45.35;;;7.72;;
83282;SDS011;73190;50.780;5.658;2024-01-25T03:30:35;56.70;;;8.33;;
83282;SDS011;73190;50.780;5.658;2024-01-25T03:33:02;56.28;;;8.28;;
83282;SDS011;73190;50.780;5.658;2024-01-25T03:35:30;60.45;;;8.95;;
83282;SDS011;73190;50.780;5.658;2024-01-25T03:37:57;53.35;;;7.80;;
83282;SDS011;73190;50.780;5.658;2024-01-25T03:40:25;47.17;;;7.22;;
83282;SDS011;73190;50.780;5.658;2024-01-25T03:42:52;52.15;;;8.10;;
83282;SDS011;73190;50.780;5.658;2024-01-25T03:45:20;45.63;;;7.62;;
83282;SDS011;73190;50.780;5.658;2024-01-25T03:47:47;43.80;;;7.15;;
83282;SDS011;73190;50.780;5.658;2024-01-25T03:50:15;48.15;;;8.13;;
83282;SDS011;73190;50.780;5.658;2024-01-25T03:52:42;46.48;;;7.40;;
83282;SDS011;73190;50.780;5.658;2024-01-25T03:55:10;58.10;;;8.25;;
83282;SDS011;73190;50.780;5.658;2024-01-25T03:57:38;43.58;;;7.97;;
83282;SDS011;73190;50.780;5.658;2024-01-25T04:00:06;52.03;;;7.55;;
83282;SDS011;73190;50.780;5.658;2024-01-25T04:02:35;63.70;;;8.38;;
83282;SDS011;73190;50.780;5.658;2024-01-25T04:05:02;46.13;;;7.55;;
83282;SDS011;73190;50.780;5.658;2024-01-25T04:07:30;46.95;;;8.00;;
83282;SDS011;73190;50.780;5.658;2024-01-25T04:09:58;48.00;;;7.12;;
83282;SDS011;73190;50.780;5.658;2024-01-25T04:12:25;42.35;;;7.03;;
83282;SDS011;73190;50.780;5.658;2024-01-25T04:14:53;44.15;;;6.87;;
83282;SDS011;73190;50.780;5.658;2024-01-25T04:17:20;47.62;;;8.28;;
83282;SDS011;73190;50.780;5.658;2024-01-25T04:19:48;45.73;;;7.62;;
83282;SDS011;73190;50.780;5.658;2024-01-25T04:22:15;44.70;;;7.37;;
83282;SDS011;73190;50.780;5.658;2024-01-25T04:24:43;42.08;;;6.80;;
83282;SDS011;73190;50.780;5.658;2024-01-25T04:27:12;34.53;;;5.60;;
83282;SDS011;73190;50.780;5.658;2024-01-25T04:29:40;46.58;;;6.78;;
83282;SDS011;73190;50.780;5.658;2024-01-25T04:32:08;35.30;;;6.62;;
83282;SDS011;73190;50.780;5.658;2024-01-25T04:34:35;29.48;;;5.20;;
83282;SDS011;73190;50.780;5.658;2024-01-25T04:37:03;32.03;;;6.05;;
83282;SDS011;73190;50.780;5.658;2024-01-25T04:39:31;33.30;;;6.03;;
83282;SDS011;73190;50.780;5.658;2024-01-25T04:41:58;34.35;;;6.10;;
83282;SDS011;73190;50.780;5.658;2024-01-25T04:44:26;44.05;;;6.95;;
83282;SDS011;73190;50.780;5.658;2024-01-25T04:46:53;33.20;;;6.80;;
83282;SDS011;73190;50.780;5.658;2024-01-25T04:49:22;30.60;;;5.62;;
83282;SDS011;73190;50.780;5.658;2024-01-25T04:51:50;26.57;;;4.85;;
83282;SDS011;73190;50.780;5.658;2024-01-25T04:54:17;32.80;;;6.05;;
83282;SDS011;73190;50.780;5.658;2024-01-25T04:56:45;38.28;;;7.00;;
83282;SDS011;73190;50.780;5.658;2024-01-25T04:59:12;33.92;;;6.78;;
83282;SDS011;73190;50.780;5.658;2024-01-25T05:01:40;31.87;;;6.35;;
83282;SDS011;73190;50.780;5.658;2024-01-25T05:04:07;35.23;;;6.08;;
83282;SDS011;73190;50.780;5.658;2024-01-25T05:06:35;38.88;;;8.25;;
83282;SDS011;73190;50.780;5.658;2024-01-25T05:09:02;35.92;;;8.98;;
83282;SDS011;73190;50.780;5.658;2024-01-25T05:11:30;34.88;;;8.08;;
83282;SDS011;73190;50.780;5.658;2024-01-25T05:13:58;30.75;;;7.42;;
83282;SDS011;73190;50.780;5.658;2024-01-25T05:16:25;24.82;;;6.28;;
83282;SDS011;73190;50.780;5.658;2024-01-25T05:18:53;31.45;;;6.12;;
83282;SDS011;73190;50.780;5.658;2024-01-25T05:21:20;42.48;;;7.58;;
83282;SDS011;73190;50.780;5.658;2024-01-25T05:23:48;37.85;;;6.25;;
83282;SDS011;73190;50.780;5.658;2024-01-25T05:26:15;29.50;;;6.53;;
83282;SDS011;73190;50.780;5.658;2024-01-25T05:28:43;24.60;;;4.58;;
83282;SDS011;73190;50.780;5.658;2024-01-25T05:31:11;19.50;;;4.90;;
83282;SDS011;73190;50.780;5.658;2024-01-25T05:33:42;29.00;;;7.25;;
83282;SDS011;73190;50.780;5.658;2024-01-25T05:36:09;32.17;;;8.50;;
83282;SDS011;73190;50.780;5.658;2024-01-25T05:38:38;37.13;;;12.58;;
83282;SDS011;73190;50.780;5.658;2024-01-25T05:41:05;34.60;;;7.20;;
83282;SDS011;73190;50.780;5.658;2024-01-25T05:43:33;43.10;;;8.00;;
83282;SDS011;73190;50.780;5.658;2024-01-25T05:46:00;31.82;;;7.15;;
83282;SDS011;73190;50.780;5.658;2024-01-25T05:48:28;34.95;;;6.72;;
83282;SDS011;73190;50.780;5.658;2024-01-25T05:50:55;35.95;;;6.58;;
83282;SDS011;73190;50.780;5.658;2024-01-25T05:53:23;25.65;;;5.55;;
83282;SDS011;73190;50.780;5.658;2024-01-25T05:55:51;23.67;;;5.08;;
83282;SDS011;73190;50.780;5.658;2024-01-25T05:58:19;31.15;;;5.12;;
83282;SDS011;73190;50.780;5.658;2024-01-25T06:00:46;35.48;;;9.83;;
83282;SDS011;73190;50.780;5.658;2024-01-25T06:03:14;31.10;;;6.12;;
83282;SDS011;73190;50.780;5.658;2024-01-25T06:05:41;26.82;;;5.90;;
83282;SDS011;73190;50.780;5.658;2024-01-25T06:08:09;32.00;;;6.45;;
83282;SDS011;73190;50.780;5.658;2024-01-25T06:10:36;30.20;;;6.53;;
83282;SDS011;73190;50.780;5.658;2024-01-25T06:13:05;23.45;;;5.45;;
83282;SDS011;73190;50.780;5.658;2024-01-25T06:15:32;34.05;;;7.25;;
83282;SDS011;73190;50.780;5.658;2024-01-25T06:18:00;25.92;;;6.72;;
83282;SDS011;73190;50.780;5.658;2024-01-25T06:20:28;28.17;;;6.30;;
83282;SDS011;73190;50.780;5.658;2024-01-25T06:22:56;46.05;;;10.78;;
83282;SDS011;73190;50.780;5.658;2024-01-25T06:25:24;31.00;;;5.97;;
83282;SDS011;73190;50.780;5.658;2024-01-25T06:27:53;29.50;;;6.50;;
83282;SDS011;73190;50.780;5.658;2024-01-25T06:30:22;30.48;;;7.33;;
83282;SDS011;73190;50.780;5.658;2024-01-25T06:32:49;21.60;;;4.85;;
83282;SDS011;73190;50.780;5.658;2024-01-25T06:35:17;21.73;;;5.28;;
83282;SDS011;73190;50.780;5.658;2024-01-25T06:37:44;28.70;;;5.37;;
83282;SDS011;73190;50.780;5.658;2024-01-25T06:40:12;31.27;;;8.68;;
83282;SDS011;73190;50.780;5.658;2024-01-25T06:42:39;34.18;;;7.90;;
83282;SDS011;73190;50.780;5.658;2024-01-25T06:45:08;37.00;;;6.92;;
83282;SDS011;73190;50.780;5.658;2024-01-25T06:47:36;31.93;;;6.60;;
83282;SDS011;73190;50.780;5.658;2024-01-25T06:50:03;40.65;;;6.50;;
83282;SDS011;73190;50.780;5.658;2024-01-25T06:52:32;42.98;;;6.42;;
83282;SDS011;73190;50.780;5.658;2024-01-25T06:55:00;34.95;;;6.03;;
83282;SDS011;73190;50.780;5.658;2024-01-25T06:57:28;33.38;;;6.30;;
83282;SDS011;73190;50.780;5.658;2024-01-25T06:59:55;42.03;;;14.70;;
83282;SDS011;73190;50.780;5.658;2024-01-25T07:02:23;28.30;;;6.67;;
83282;SDS011;73190;50.780;5.658;2024-01-25T07:04:51;18.55;;;5.05;;
83282;SDS011;73190;50.780;5.658;2024-01-25T07:07:19;23.10;;;4.80;;
83282;SDS011;73190;50.780;5.658;2024-01-25T07:09:47;21.60;;;4.20;;
83282;SDS011;73190;50.780;5.658;2024-01-25T07:12:15;17.45;;;3.85;;
83282;SDS011;73190;50.780;5.658;2024-01-25T07:14:42;33.13;;;6.47;;
83282;SDS011;73190;50.780;5.658;2024-01-25T07:17:10;30.55;;;5.97;;
83282;SDS011;73190;50.780;5.658;2024-01-25T07:19:37;35.33;;;7.17;;
83282;SDS011;73190;50.780;5.658;2024-01-25T07:22:05;22.40;;;5.28;;
83282;SDS011;73190;50.780;5.658;2024-01-25T07:24:32;15.63;;;3.72;;
83282;SDS011;73190;50.780;5.658;2024-01-25T07:27:00;19.40;;;4.53;;
83282;SDS011;73190;50.780;5.658;2024-01-25T07:29:27;25.35;;;4.95;;
83282;SDS011;73190;50.780;5.658;2024-01-25T07:31:55;20.62;;;4.45;;
83282;SDS011;73190;50.780;5.658;2024-01-25T07:34:22;29.30;;;5.12;;
83282;SDS011;73190;50.780;5.658;2024-01-25T07:36:50;33.25;;;6.67;;
83282;SDS011;73190;50.780;5.658;2024-01-25T07:39:17;20.88;;;4.95;;
83282;SDS011;73190;50.780;5.658;2024-01-25T07:41:45;22.77;;;4.78;;
83282;SDS011;73190;50.780;5.658;2024-01-25T07:44:13;19.92;;;5.05;;
83282;SDS011;73190;50.780;5.658;2024-01-25T07:46:40;20.60;;;4.67;;
83282;SDS011;73190;50.780;5.658;2024-01-25T07:49:08;25.70;;;5.67;;
83282;SDS011;73190;50.780;5.658;2024-01-25T07:51:35;47.33;;;7.05;;
83282;SDS011;73190;50.780;5.658;2024-01-25T07:54:03;42.45;;;7.20;;
83282;SDS011;73190;50.780;5.658;2024-01-25T07:56:30;33.42;;;5.75;;
83282;SDS011;73190;50.780;5.658;2024-01-25T07:58:58;38.20;;;7.40;;
83282;SDS011;73190;50.780;5.658;2024-01-25T08:01:25;34.15;;;7.15;;
83282;SDS011;73190;50.780;5.658;2024-01-25T08:03:53;45.43;;;10.50;;
83282;SDS011;73190;50.780;5.658;2024-01-25T08:06:21;61.80;;;13.30;;
83282;SDS011;73190;50.780;5.658;2024-01-25T08:08:49;55.05;;;12.65;;
83282;SDS011;73190;50.780;5.658;2024-01-25T08:11:16;53.95;;;13.65;;
83282;SDS011;73190;50.780;5.658;2024-01-25T08:13:46;67.60;;;14.83;;
83282;SDS011;73190;50.780;5.658;2024-01-25T08:16:13;72.08;;;15.95;;
83282;SDS011;73190;50.780;5.658;2024-01-25T08:18:43;67.47;;;17.13;;
83282;SDS011;73190;50.780;5.658;2024-01-25T08:21:10;69.65;;;16.75;;
83282;SDS011;73190;50.780;5.658;2024-01-25T08:23:38;74.75;;;20.00;;
83282;SDS011;73190;50.780;5.658;2024-01-25T08:26:06;62.55;;;19.23;;
83282;SDS011;73190;50.780;5.658;2024-01-25T08:28:39;71.07;;;19.05;;
83282;SDS011;73190;50.780;5.658;2024-01-25T08:31:07;77.77;;;20.70;;
83282;SDS011;73190;50.780;5.658;2024-01-25T08:33:35;74.75;;;20.45;;
83282;SDS011;73190;50.780;5.658;2024-01-25T08:36:02;78.87;;;21.30;;
83282;SDS011;73190;50.780;5.658;2024-01-25T08:38:30;86.37;;;22.77;;
83282;SDS011;73190;50.780;5.658;2024-01-25T08:40:57;82.35;;;21.55;;
83282;SDS011;73190;50.780;5.658;2024-01-25T08:43:25;80.50;;;21.62;;
83282;SDS011;73190;50.780;5.658;2024-01-25T08:45:53;77.87;;;20.17;;
83282;SDS011;73190;50.780;5.658;2024-01-25T08:48:20;69.70;;;19.60;;
83282;SDS011;73190;50.780;5.658;2024-01-25T08:50:48;78.87;;;20.08;;
83282;SDS011;73190;50.780;5.658;2024-01-25T08:53:17;66.82;;;18.42;;
83282;SDS011;73190;50.780;5.658;2024-01-25T08:55:47;67.60;;;19.25;;
83282;SDS011;73190;50.780;5.658;2024-01-25T08:58:16;64.25;;;18.40;;
83282;SDS011;73190;50.780;5.658;2024-01-25T09:00:43;68.72;;;18.62;;
83282;SDS011;73190;50.780;5.658;2024-01-25T09:03:11;67.97;;;18.70;;
83282;SDS011;73190;50.780;5.658;2024-01-25T09:05:38;61.83;;;18.62;;
83282;SDS011;73190;50.780;5.658;2024-01-25T09:08:08;51.10;;;16.40;;
83282;SDS011;73190;50.780;5.658;2024-01-25T09:10:35;65.22;;;18.30;;
83282;SDS011;73190;50.780;5.658;2024-01-25T09:13:03;68.15;;;19.05;;
83282;SDS011;73190;50.780;5.658;2024-01-25T09:15:30;60.08;;;16.17;;
83282;SDS011;73190;50.780;5.658;2024-01-25T09:17:58;51.15;;;17.30;;
83282;SDS011;73190;50.780;5.658;2024-01-25T09:20:26;66.57;;;16.87;;
83282;SDS011;73190;50.780;5.658;2024-01-25T09:22:53;57.03;;;15.20;;
83282;SDS011;73190;50.780;5.658;2024-01-25T09:25:21;56.33;;;14.93;;
83282;SDS011;73190;50.780;5.658;2024-01-25T09:27:49;52.03;;;14.98;;
83282;SDS011;73190;50.780;5.658;2024-01-25T09:30:17;48.73;;;14.78;;
83282;SDS011;73190;50.780;5.658;2024-01-25T09:32:45;56.35;;;14.93;;
83282;SDS011;73190;50.780;5.658;2024-01-25T09:35:12;55.43;;;14.58;;
83282;SDS011;73190;50.780;5.658;2024-01-25T09:37:40;50.73;;;14.53;;
83282;SDS011;73190;50.780;5.658;2024-01-25T09:40:08;50.70;;;14.80;;
83282;SDS011;73190;50.780;5.658;2024-01-25T09:42:36;49.60;;;13.62;;
83282;SDS011;73190;50.780;5.658;2024-01-25T09:45:05;43.90;;;13.55;;
83282;SDS011;73190;50.780;5.658;2024-01-25T09:47:33;51.37;;;13.43;;
83282;SDS011;73190;50.780;5.658;2024-01-25T09:50:01;48.92;;;14.25;;
83282;SDS011;73190;50.780;5.658;2024-01-25T09:52:30;47.75;;;13.38;;
83282;SDS011;73190;50.780;5.658;2024-01-25T09:54:59;50.48;;;15.15;;
83282;SDS011;73190;50.780;5.658;2024-01-25T09:57:28;48.10;;;14.75;;
83282;SDS011;73190;50.780;5.658;2024-01-25T09:59:57;55.60;;;13.47;;
83282;SDS011;73190;50.780;5.658;2024-01-25T10:02:24;52.88;;;13.53;;
83282;SDS011;73190;50.780;5.658;2024-01-25T10:04:52;45.95;;;13.88;;
83282;SDS011;73190;50.780;5.658;2024-01-25T10:07:41;56.10;;;13.38;;
83282;SDS011;73190;50.780;5.658;2024-01-25T10:10:11;43.08;;;12.78;;
83282;SDS011;73190;50.780;5.658;2024-01-25T10:12:40;47.30;;;14.85;;
83282;SDS011;73190;50.780;5.658;2024-01-25T10:15:09;52.33;;;13.90;;
83282;SDS011;73190;50.780;5.658;2024-01-25T10:17:38;40.15;;;12.95;;
83282;SDS011;73190;50.780;5.658;2024-01-25T10:20:06;43.02;;;13.00;;
83282;SDS011;73190;50.780;5.658;2024-01-25T10:22:36;39.65;;;11.45;;
83282;SDS011;73190;50.780;5.658;2024-01-25T10:25:06;53.30;;;13.03;;
83282;SDS011;73190;50.780;5.658;2024-01-25T10:27:35;48.90;;;11.93;;
83282;SDS011;73190;50.780;5.658;2024-01-25T10:30:04;39.10;;;11.63;;
83282;SDS011;73190;50.780;5.658;2024-01-25T10:32:36;48.17;;;11.90;;
83282;SDS011;73190;50.780;5.658;2024-01-25T10:35:04;45.08;;;11.63;;
83282;SDS011;73190;50.780;5.658;2024-01-25T10:37:34;51.70;;;12.40;;
83282;SDS011;73190;50.780;5.658;2024-01-25T10:40:03;40.28;;;12.10;;
83282;SDS011;73190;50.780;5.658;2024-01-25T10:42:31;44.35;;;10.68;;
83282;SDS011;73190;50.780;5.658;2024-01-25T10:44:59;43.28;;;10.53;;
83282;SDS011;73190;50.780;5.658;2024-01-25T10:47:26;32.42;;;10.85;;
83282;SDS011;73190;50.780;5.658;2024-01-25T10:49:56;38.07;;;9.47;;
83282;SDS011;73190;50.780;5.658;2024-01-25T10:52:24;40.98;;;10.03;;
83282;SDS011;73190;50.780;5.658;2024-01-25T10:54:52;38.85;;;10.45;;
83282;SDS011;73190;50.780;5.658;2024-01-25T10:57:19;38.65;;;9.33;;
83282;SDS011;73190;50.780;5.658;2024-01-25T10:59:47;37.90;;;9.23;;
83282;SDS011;73190;50.780;5.658;2024-01-25T11:02:18;36.58;;;10.30;;
83282;SDS011;73190;50.780;5.658;2024-01-25T11:04:53;44.38;;;9.80;;
83282;SDS011;73190;50.780;5.658;2024-01-25T11:07:21;33.60;;;8.95;;
83282;SDS011;73190;50.780;5.658;2024-01-25T11:09:51;34.80;;;9.40;;
83282;SDS011;73190;50.780;5.658;2024-01-25T11:12:18;36.13;;;9.83;;
83282;SDS011;73190;50.780;5.658;2024-01-25T11:14:53;39.50;;;9.70;;
83282;SDS011;73190;50.780;5.658;2024-01-25T11:17:22;43.38;;;10.20;;
83282;SDS011;73190;50.780;5.658;2024-01-25T11:19:50;47.60;;;9.40;;
83282;SDS011;73190;50.780;5.658;2024-01-25T11:22:17;35.13;;;8.83;;
83282;SDS011;73190;50.780;5.658;2024-01-25T11:24:46;41.33;;;8.68;;
83282;SDS011;73190;50.780;5.658;2024-01-25T11:27:14;42.90;;;10.20;;
83282;SDS011;73190;50.780;5.658;2024-01-25T11:29:42;43.78;;;8.98;;
83282;SDS011;73190;50.780;5.658;2024-01-25T11:32:09;31.82;;;8.30;;
83282;SDS011;73190;50.780;5.658;2024-01-25T11:34:39;33.30;;;7.85;;
83282;SDS011;73190;50.780;5.658;2024-01-25T11:37:07;32.20;;;9.13;;
83282;SDS011;73190;50.780;5.658;2024-01-25T11:39:34;37.95;;;7.78;;
83282;SDS011;73190;50.780;5.658;2024-01-25T11:42:02;32.08;;;7.25;;
83282;SDS011;73190;50.780;5.658;2024-01-25T11:44:29;36.05;;;7.65;;
83282;SDS011;73190;50.780;5.658;2024-01-25T11:46:57;33.70;;;7.65;;
83282;SDS011;73190;50.780;5.658;2024-01-25T11:49:25;39.88;;;8.95;;
83282;SDS011;73190;50.780;5.658;2024-01-25T11:51:52;37.88;;;7.70;;
83282;SDS011;73190;50.780;5.658;2024-01-25T11:54:20;28.67;;;6.45;;
83282;SDS011;73190;50.780;5.658;2024-01-25T11:56:47;31.87;;;8.53;;
83282;SDS011;73190;50.780;5.658;2024-01-25T11:59:15;38.30;;;7.78;;
83282;SDS011;73190;50.780;5.658;2024-01-25T12:01:43;31.93;;;6.80;;
83282;SDS011;73190;50.780;5.658;2024-01-25T12:04:11;38.78;;;7.85;;
83282;SDS011;73190;50.780;5.658;2024-01-25T12:06:39;35.17;;;7.83;;
83282;SDS011;73190;50.780;5.658;2024-01-25T12:09:11;25.40;;;6.50;;
83282;SDS011;73190;50.780;5.658;2024-01-25T12:11:36;34.30;;;6.45;;
83282;SDS011;73190;50.780;5.658;2024-01-25T12:14:05;32.43;;;7.03;;
83282;SDS011;73190;50.780;5.658;2024-01-25T12:16:34;37.38;;;6.75;;
83282;SDS011;73190;50.780;5.658;2024-01-25T12:19:02;33.70;;;6.60;;
83282;SDS011;73190;50.780;5.658;2024-01-25T12:21:32;34.75;;;6.83;;
83282;SDS011;73190;50.780;5.658;2024-01-25T12:24:00;31.62;;;6.80;;
83282;SDS011;73190;50.780;5.658;2024-01-25T12:26:28;36.38;;;7.00;;
83282;SDS011;73190;50.780;5.658;2024-01-25T12:28:57;36.42;;;7.05;;
83282;SDS011;73190;50.780;5.658;2024-01-25T12:31:26;31.23;;;6.22;;
83282;SDS011;73190;50.780;5.658;2024-01-25T12:33:54;36.88;;;7.47;;
83282;SDS011;73190;50.780;5.658;2024-01-25T12:36:21;32.08;;;7.15;;
83282;SDS011;73190;50.780;5.658;2024-01-25T12:38:49;37.23;;;7.33;;
83282;SDS011;73190;50.780;5.658;2024-01-25T12:41:16;36.17;;;7.22;;
83282;SDS011;73190;50.780;5.658;2024-01-25T12:43:44;28.92;;;6.33;;
83282;SDS011;73190;50.780;5.658;2024-01-25T12:46:11;32.03;;;6.78;;
83282;SDS011;73190;50.780;5.658;2024-01-25T12:48:39;42.05;;;6.70;;
83282;SDS011;73190;50.780;5.658;2024-01-25T12:51:06;34.60;;;6.70;;
83282;SDS011;73190;50.780;5.658;2024-01-25T12:53:34;29.27;;;6.30;;
83282;SDS011;73190;50.780;5.658;2024-01-25T12:56:04;33.50;;;7.20;;
83282;SDS011;73190;50.780;5.658;2024-01-25T12:58:32;35.75;;;7.25;;
83282;SDS011;73190;50.780;5.658;2024-01-25T13:01:00;31.07;;;6.65;;
83282;SDS011;73190;50.780;5.658;2024-01-25T13:03:28;34.85;;;7.45;;
83282;SDS011;73190;50.780;5.658;2024-01-25T13:05:55;28.85;;;5.62;;
83282;SDS011;73190;50.780;5.658;2024-01-25T13:08:23;25.60;;;6.03;;
83282;SDS011;73190;50.780;5.658;2024-01-25T13:10:50;27.50;;;5.08;;
83282;SDS011;73190;50.780;5.658;2024-01-25T13:13:18;37.83;;;6.33;;
83282;SDS011;73190;50.780;5.658;2024-01-25T13:15:46;31.35;;;5.62;;
83282;SDS011;73190;50.780;5.658;2024-01-25T13:18:13;29.48;;;5.50;;
83282;SDS011;73190;50.780;5.658;2024-01-25T13:20:41;33.48;;;5.75;;
83282;SDS011;73190;50.780;5.658;2024-01-25T13:23:08;31.45;;;5.35;;
83282;SDS011;73190;50.780;5.658;2024-01-25T13:25:36;27.75;;;5.35;;
83282;SDS011;73190;50.780;5.658;2024-01-25T13:28:04;38.38;;;6.22;;
83282;SDS011;73190;50.780;5.658;2024-01-25T13:30:31;31.52;;;5.90;;
83282;SDS011;73190;50.780;5.658;2024-01-25T13:32:59;25.97;;;4.90;;
83282;SDS011;73190;50.780;5.658;2024-01-25T13:35:26;27.35;;;5.17;;
83282;SDS011;73190;50.780;5.658;2024-01-25T13:37:54;26.65;;;5.12;;
83282;SDS011;73190;50.780;5.658;2024-01-25T13:40:23;27.17;;;6.10;;
83282;SDS011;73190;50.780;5.658;2024-01-25T13:42:50;26.52;;;6.70;;
83282;SDS011;73190;50.780;5.658;2024-01-25T13:45:18;40.40;;;6.53;;
83282;SDS011;73190;50.780;5.658;2024-01-25T13:47:46;35.50;;;7.25;;
83282;SDS011;73190;50.780;5.658;2024-01-25T13:50:13;37.42;;;7.12;;
83282;SDS011;73190;50.780;5.658;2024-01-25T13:52:41;34.40;;;6.22;;
83282;SDS011;73190;50.780;5.658;2024-01-25T13:55:08;34.08;;;6.30;;
83282;SDS011;73190;50.780;5.658;2024-01-25T13:57:36;33.40;;;5.62;;
83282;SDS011;73190;50.780;5.658;2024-01-25T14:00:04;35.38;;;6.30;;
83282;SDS011;73190;50.780;5.658;2024-01-25T14:02:32;30.27;;;5.70;;
83282;SDS011;73190;50.780;5.658;2024-01-25T14:04:59;28.77;;;5.80;;
83282;SDS011;73190;50.780;5.658;2024-01-25T14:07:27;26.33;;;5.15;;
83282;SDS011;73190;50.780;5.658;2024-01-25T14:09:55;28.70;;;4.72;;
83282;SDS011;73190;50.780;5.658;2024-01-25T14:12:22;22.95;;;4.80;;
83282;SDS011;73190;50.780;5.658;2024-01-25T14:14:50;25.17;;;4.47;;
83282;SDS011;73190;50.780;5.658;2024-01-25T14:17:18;20.50;;;3.75;;
83282;SDS011;73190;50.780;5.658;2024-01-25T14:19:45;19.87;;;4.50;;
83282;SDS011;73190;50.780;5.658;2024-01-25T14:22:13;18.20;;;4.33;;
83282;SDS011;73190;50.780;5.658;2024-01-25T14:24:40;21.57;;;5.17;;
83282;SDS011;73190;50.780;5.658;2024-01-25T14:27:08;23.50;;;5.22;;
83282;SDS011;73190;50.780;5.658;2024-01-25T14:29:35;20.95;;;4.47;;
83282;SDS011;73190;50.780;5.658;2024-01-25T14:32:03;21.07;;;3.87;;
83282;SDS011;73190;50.780;5.658;2024-01-25T14:34:31;17.17;;;4.25;;